createdAt,value
2022-09-11T00:01:17.901Z,100840.09
2022-09-11T00:03:57.009Z,100839.78
2022-09-11T00:06:37.102Z,100839.41
2022-09-11T00:09:17.701Z,100840.78
2022-09-11T00:11:59.452Z,100839.13
2022-09-11T00:14:40.640Z,100834.97
2022-09-11T00:17:22.456Z,100822.97
2022-09-11T00:20:15.545Z,100827.47
2022-09-11T00:22:54.871Z,100828.50
2022-09-11T00:25:36.028Z,100820.47
2022-09-11T00:28:18.020Z,100824.97
2022-09-11T00:31:01.952Z,100829.50
2022-09-11T00:33:42.841Z,100829.50
2022-09-11T00:36:27.583Z,100836.00
2022-09-11T00:39:11.123Z,100838.88
2022-09-11T00:41:51.177Z,100841.53
2022-09-11T00:45:01.272Z,100843.75
2022-09-11T00:47:41.893Z,100846.59
2022-09-11T00:50:26.664Z,100851.28
2022-09-11T00:53:09.838Z,100847.59
2022-09-11T00:55:55.873Z,100846.59
2022-09-11T00:58:39.701Z,100850.94
2022-09-11T01:01:21.065Z,100846.59
2022-09-11T01:04:04.337Z,100848.25
2022-09-11T01:06:46.738Z,100837.19
2022-09-11T01:09:27.469Z,100838.03
2022-09-11T01:12:11.717Z,100823.66
2022-09-11T01:14:56.618Z,100820.47
2022-09-11T01:17:47.561Z,100815.75
2022-09-11T01:20:47.418Z,100732.81
2022-09-11T01:23:40.352Z,100724.44
2022-09-11T01:26:48.376Z,100716.69
2022-09-11T01:29:30.601Z,100724.34
2022-09-11T01:32:16.255Z,100718.16
2022-09-11T01:35:05.539Z,100709.81
2022-09-11T01:37:54.241Z,100701.59
2022-09-11T01:40:45.983Z,100696.88
2022-09-11T01:43:42.250Z,100694.31
2022-09-11T01:46:24.574Z,100687.47
2022-09-11T01:49:11.819Z,100685.63
2022-09-11T01:51:55.066Z,100679.91
2022-09-11T01:54:39.386Z,100679.25
2022-09-11T01:57:24.999Z,100677.22
2022-09-11T02:00:09.954Z,100672.72
2022-09-11T02:03:02.298Z,100676.84
2022-09-11T02:05:48.897Z,100672.34
2022-09-11T02:08:40.540Z,100683.69
2022-09-11T02:11:29.476Z,100688.69
2022-09-11T02:14:20.815Z,100696.38
2022-09-11T02:17:04.656Z,100685.84
2022-09-11T02:19:46.755Z,100696.38
2022-09-11T02:22:27.628Z,100705.03
2022-09-11T02:25:08.103Z,100709.94
2022-09-11T02:27:50.383Z,100715.56
2022-09-11T02:30:31.774Z,100726.47
2022-09-11T02:33:43.873Z,100733.47
2022-09-11T02:36:35.996Z,100739.47
2022-09-11T02:39:41.661Z,100745.47
2022-09-11T02:42:36.179Z,100745.84
2022-09-11T02:45:29.604Z,100750.56
2022-09-11T02:48:20.186Z,100752.88
2022-09-11T02:51:10.820Z,100756.56
2022-09-11T02:53:55.797Z,100759.59
2022-09-11T02:56:42.244Z,100761.25
2022-09-11T02:59:29.399Z,100763.56
2022-09-11T03:02:13.982Z,100775.56
2022-09-11T03:04:56.669Z,100776.41
2022-09-11T03:07:36.321Z,100774.38
2022-09-11T03:10:17.728Z,100773.53
2022-09-11T03:12:59.531Z,100772.72
2022-09-11T03:15:40.164Z,100773.91
2022-09-11T03:18:20.279Z,100772.06
2022-09-11T03:21:01.975Z,100774.75
2022-09-11T03:23:41.759Z,100769.38
2022-09-11T03:26:22.516Z,100774.94
2022-09-11T03:29:02.568Z,100783.31
2022-09-11T03:31:44.692Z,100781.31
2022-09-11T03:34:27.156Z,100787.38
2022-09-11T03:37:06.563Z,100787.56
2022-09-11T03:39:48.192Z,100791.06
2022-09-11T03:42:27.127Z,100794.78
2022-09-11T03:45:08.435Z,100796.44
2022-09-11T03:47:51.048Z,100794.13
2022-09-11T03:50:30.399Z,100802.47
2022-09-11T03:53:12.611Z,100800.50
2022-09-11T03:55:52.208Z,100799.81
2022-09-11T03:58:31.487Z,100805.84
2022-09-11T04:01:13.925Z,100797.13
2022-09-11T04:03:54.744Z,100792.75
2022-09-11T04:06:40.684Z,100791.25
2022-09-11T04:09:20.579Z,100778.72
2022-09-11T04:12:02.815Z,100783.75
2022-09-11T04:14:41.907Z,100782.72
2022-09-11T04:17:24.403Z,100794.94
2022-09-11T04:20:05.188Z,100793.94
2022-09-11T04:22:45.734Z,100797.81
2022-09-11T04:25:28.123Z,100800.81
2022-09-11T04:28:08.822Z,100806.34
2022-09-11T04:30:48.450Z,100811.19
2022-09-11T04:33:26.891Z,100815.53
2022-09-11T04:36:07.588Z,100825.56
2022-09-11T04:38:49.749Z,100826.44
2022-09-11T04:41:30.828Z,100839.44
2022-09-11T04:44:14.532Z,100836.16
2022-09-11T04:46:57.106Z,100836.63
2022-09-11T04:49:38.159Z,100839.50
2022-09-11T04:52:17.097Z,100844.00
2022-09-11T04:54:57.786Z,100846.88
2022-09-11T04:57:37.652Z,100850.75
2022-09-11T05:00:18.210Z,100847.06
2022-09-11T05:02:58.791Z,100852.22
2022-09-11T05:05:43.342Z,100850.38
2022-09-11T05:08:26.567Z,100855.09
2022-09-11T05:11:07.894Z,100860.44
2022-09-11T05:13:48.525Z,100859.78
2022-09-11T05:16:30.328Z,100865.78
2022-09-11T05:19:14.126Z,100868.47
2022-09-11T05:21:56.639Z,100876.84
2022-09-11T05:24:38.560Z,100878.50
2022-09-11T05:27:19.571Z,100882.19
2022-09-11T05:29:59.822Z,100881.84
2022-09-11T05:32:40.725Z,100888.88
2022-09-11T05:35:21.558Z,100898.38
2022-09-11T05:38:02.750Z,100898.38
2022-09-11T05:40:46.786Z,100910.25
2022-09-11T05:43:26.537Z,100907.91
2022-09-11T05:46:07.593Z,100915.59
2022-09-11T05:48:49.645Z,100927.63
2022-09-11T05:51:29.650Z,100925.78
2022-09-11T05:54:12.005Z,100934.81
2022-09-11T05:56:55.331Z,100929.94
2022-09-11T05:59:39.981Z,100932.25
2022-09-11T06:02:19.747Z,100939.94
2022-09-11T06:05:04.057Z,100942.41
2022-09-11T06:07:46.687Z,100951.28
2022-09-11T06:10:28.799Z,100957.31
2022-09-11T06:13:10.192Z,100959.00
2022-09-11T06:15:52.612Z,100967.50
2022-09-11T06:18:33.607Z,100957.44
2022-09-11T06:21:29.236Z,100956.72
2022-09-11T06:24:17.227Z,100969.94
2022-09-11T06:27:20.015Z,100979.47
2022-09-11T06:30:02.057Z,100983.69
2022-09-11T06:32:45.044Z,100991.34
2022-09-11T06:35:23.749Z,100988.31
2022-09-11T06:38:03.066Z,100995.34
2022-09-11T06:40:42.865Z,100998.66
2022-09-11T06:43:24.719Z,101009.03
2022-09-11T06:46:09.163Z,101010.69
2022-09-11T06:48:52.477Z,101022.91
2022-09-11T06:51:40.036Z,101022.91
2022-09-11T06:54:22.113Z,101023.56
2022-09-11T06:57:02.548Z,101022.38
2022-09-11T06:59:44.902Z,101020.34
2022-09-11T07:02:24.171Z,101020.66
2022-09-11T07:05:06.019Z,101020.66
2022-09-11T07:07:46.189Z,101020.47
2022-09-11T07:10:25.233Z,101016.78
2022-09-11T07:13:10.211Z,101028.16
2022-09-11T07:16:01.867Z,101031.66
2022-09-11T07:18:43.498Z,101035.03
2022-09-11T07:21:28.898Z,101035.03
2022-09-11T07:24:13.444Z,101041.78
2022-09-11T07:26:55.997Z,101039.56
2022-09-11T07:29:41.819Z,101037.41
2022-09-11T07:32:21.733Z,101044.06
2022-09-11T07:35:04.504Z,101042.03
2022-09-11T07:37:44.364Z,101035.84
2022-09-11T07:40:29.463Z,101044.53
2022-09-11T07:43:13.385Z,101101.97
2022-09-11T07:45:56.521Z,101105.47
2022-09-11T07:48:37.103Z,101103.44
2022-09-11T07:51:18.633Z,101110.44
2022-09-11T07:53:59.943Z,101106.38
2022-09-11T07:56:41.701Z,101116.91
2022-09-11T07:59:23.721Z,101116.03
2022-09-11T08:02:04.102Z,101117.81
2022-09-11T08:04:46.884Z,101116.38
2022-09-11T08:07:28.604Z,101115.47
2022-09-11T08:10:26.558Z,101120.09
2022-09-11T08:13:09.626Z,101125.88
2022-09-11T08:15:50.748Z,101135.84
2022-09-11T08:18:35.133Z,101129.03
2022-09-11T08:21:16.802Z,101134.16
2022-09-11T08:23:58.582Z,101139.22
2022-09-11T08:26:38.628Z,101150.91
2022-09-11T08:29:18.193Z,101166.47
2022-09-11T08:32:02.329Z,101184.72
2022-09-11T08:34:44.408Z,101192.22
2022-09-11T08:37:23.071Z,101195.72
2022-09-11T08:40:03.193Z,101199.94
2022-09-11T08:42:45.456Z,101198.34
2022-09-11T08:45:29.689Z,101208.25
2022-09-11T08:48:14.210Z,101200.88
2022-09-11T08:50:53.282Z,101200.13
2022-09-11T08:53:35.150Z,101200.13
2022-09-11T08:56:19.108Z,101203.28
2022-09-11T08:59:11.858Z,101211.81
2022-09-11T09:01:58.617Z,101213.28
2022-09-11T09:04:56.803Z,101219.75
2022-09-11T09:07:46.288Z,101230.53
2022-09-11T09:10:41.366Z,101221.69
2022-09-11T09:13:46.081Z,101232.94
2022-09-11T09:16:37.100Z,101238.13
2022-09-11T09:19:19.385Z,101237.81
2022-09-11T09:22:06.961Z,101239.19
2022-09-11T09:24:53.363Z,101246.44
2022-09-11T09:27:35.675Z,101259.56
2022-09-11T09:30:17.511Z,101259.22
2022-09-11T09:33:01.830Z,101267.00
2022-09-11T09:35:44.541Z,101261.16
2022-09-11T09:38:31.364Z,101266.53
2022-09-11T09:41:58.944Z,101255.38
2022-09-11T09:44:51.548Z,101267.63
2022-09-11T09:47:34.002Z,101271.59
2022-09-11T09:50:19.583Z,101267.06
2022-09-11T09:53:04.680Z,101267.97
2022-09-11T09:55:45.066Z,101267.78
2022-09-11T09:58:26.576Z,101269.44
2022-09-11T10:01:43.969Z,101279.19
2022-09-11T10:04:26.924Z,101274.25
2022-09-11T10:07:11.337Z,101276.16
2022-09-11T10:09:54.641Z,101280.59
2022-09-11T10:12:35.886Z,101281.94
2022-09-11T10:15:21.895Z,101292.38
2022-09-11T10:18:31.055Z,101288.41
2022-09-11T10:21:25.728Z,101294.75
2022-09-11T10:24:23.066Z,101291.69
2022-09-11T10:27:04.028Z,101298.44
2022-09-11T10:29:50.106Z,101309.28
2022-09-11T10:32:32.121Z,101305.84
2022-09-11T10:35:11.635Z,101305.13
2022-09-11T10:38:02.001Z,101309.38
2022-09-11T10:41:19.113Z,101316.22
2022-09-11T10:44:01.593Z,101309.63
2022-09-11T10:46:42.889Z,101330.44
2022-09-11T10:49:24.143Z,101328.81
2022-09-11T10:52:18.662Z,101351.25
2022-09-11T10:55:04.775Z,101343.19
2022-09-11T10:57:46.669Z,101356.94
2022-09-11T11:00:28.034Z,101351.13
2022-09-11T11:03:16.555Z,101352.34
2022-09-11T11:06:04.954Z,101348.41
2022-09-11T11:08:59.736Z,101366.84
2022-09-11T11:11:49.226Z,101373.72
2022-09-11T11:14:48.008Z,101364.72
2022-09-11T11:17:35.688Z,101372.66
2022-09-11T11:20:33.134Z,101361.25
2022-09-11T11:23:37.721Z,101366.63
2022-09-11T11:26:28.234Z,101360.81
2022-09-11T11:29:26.604Z,101368.94
2022-09-11T11:32:17.229Z,101377.03
2022-09-11T11:35:13.921Z,101368.31
2022-09-11T11:38:02.951Z,101381.19
2022-09-11T11:40:46.151Z,101377.81
2022-09-11T11:43:28.560Z,101384.31
2022-09-11T11:46:15.450Z,101371.00
2022-09-11T11:48:58.831Z,101384.81
2022-09-11T11:51:45.344Z,101387.94
2022-09-11T11:54:30.143Z,101383.38
2022-09-11T11:57:13.455Z,101393.34
2022-09-11T11:59:58.043Z,101390.16
2022-09-11T12:02:44.124Z,101391.94
2022-09-11T12:05:26.387Z,101399.84
2022-09-11T12:08:13.087Z,101399.63
2022-09-11T12:10:58.715Z,101396.75
2022-09-11T12:13:43.871Z,101400.81
2022-09-11T12:16:29.036Z,101411.53
2022-09-11T12:19:19.610Z,101411.47
2022-09-11T12:22:14.617Z,101414.59
2022-09-11T12:24:59.225Z,101408.03
2022-09-11T12:27:54.241Z,101408.63
2022-09-11T12:31:02.025Z,101406.94
2022-09-11T12:33:55.481Z,101404.13
2022-09-11T12:36:51.098Z,101409.19
2022-09-11T12:39:34.171Z,101399.38
2022-09-11T12:42:54.821Z,101402.31
2022-09-11T12:45:39.128Z,101390.03
2022-09-11T12:48:21.586Z,101403.31
2022-09-11T12:51:01.755Z,101392.28
2022-09-11T12:53:47.088Z,101396.59
2022-09-11T12:56:29.424Z,101380.34
2022-09-11T12:59:09.901Z,101380.50
2022-09-11T13:01:48.826Z,101380.09
2022-09-11T13:04:31.011Z,101390.91
2022-09-11T13:07:25.987Z,101383.44
2022-09-11T13:10:08.945Z,101382.53
2022-09-11T13:12:53.332Z,101378.81
2022-09-11T13:15:44.585Z,101373.41
2022-09-11T13:18:32.956Z,101367.78
2022-09-11T13:21:22.029Z,101374.88
2022-09-11T13:24:05.787Z,101369.88
2022-09-11T13:26:44.581Z,101362.03
2022-09-11T13:29:24.683Z,101357.28
2022-09-11T13:32:11.269Z,101355.00
2022-09-11T13:34:56.379Z,101366.03
2022-09-11T13:37:37.181Z,101374.53
2022-09-11T13:40:22.431Z,101363.94
2022-09-11T13:43:03.018Z,101361.03
2022-09-11T13:45:44.081Z,101364.94
2022-09-11T13:48:27.105Z,101367.25
2022-09-11T13:51:13.314Z,101363.69
2022-09-11T13:53:57.510Z,101354.13
2022-09-11T13:56:48.157Z,101354.97
2022-09-11T13:59:39.719Z,101341.69
2022-09-11T14:02:40.408Z,101343.19
2022-09-11T14:05:35.003Z,101351.72
2022-09-11T14:08:24.492Z,101353.34
2022-09-11T14:11:11.199Z,101340.25
2022-09-11T14:13:56.162Z,101334.06
2022-09-11T14:16:39.014Z,101330.53
2022-09-11T14:19:21.318Z,101333.84
2022-09-11T14:22:02.718Z,101323.88
2022-09-11T14:24:52.085Z,101335.91
2022-09-11T14:27:37.648Z,101324.91
2022-09-11T14:30:37.508Z,101343.78
2022-09-11T14:33:26.406Z,101326.53
2022-09-11T14:36:08.174Z,101327.53
2022-09-11T14:38:48.396Z,101325.03
2022-09-11T14:41:27.598Z,101314.66
2022-09-11T14:44:08.669Z,101312.13
2022-09-11T14:46:48.907Z,101331.19
2022-09-11T14:49:29.497Z,101331.34
2022-09-11T14:52:14.296Z,101318.06
2022-09-11T14:54:55.989Z,101329.03
2022-09-11T14:57:36.353Z,101324.41
2022-09-11T15:00:17.012Z,101326.88
2022-09-11T15:02:57.335Z,101323.91
2022-09-11T15:05:35.945Z,101313.00
2022-09-11T15:08:15.628Z,101319.31
2022-09-11T15:10:55.071Z,101316.78
2022-09-11T15:13:35.835Z,101307.84
2022-09-11T15:16:26.872Z,101305.97
2022-09-11T15:19:06.255Z,101310.94
2022-09-11T15:21:46.049Z,101310.19
2022-09-11T15:24:25.947Z,101304.53
2022-09-11T15:27:04.919Z,101304.56
2022-09-11T15:29:45.608Z,101307.41
2022-09-11T15:32:25.377Z,101297.00
2022-09-11T15:35:05.424Z,101299.09
2022-09-11T15:37:47.341Z,101292.25
2022-09-11T15:40:27.945Z,101293.59
2022-09-11T15:43:06.639Z,101295.09
2022-09-11T15:45:46.767Z,101293.41
2022-09-11T15:48:28.360Z,101296.91
2022-09-11T15:51:13.174Z,101295.66
2022-09-11T15:53:53.367Z,101296.19
2022-09-11T15:56:35.983Z,101284.13
2022-09-11T15:59:16.422Z,101277.09
2022-09-11T16:02:06.948Z,101275.41
2022-09-11T16:04:51.634Z,101283.06
2022-09-11T16:07:34.199Z,101286.50
2022-09-11T16:10:14.772Z,101276.31
2022-09-11T16:12:58.862Z,101277.34
2022-09-11T16:15:38.001Z,101278.91
2022-09-11T16:18:19.047Z,101271.84
2022-09-11T16:21:01.155Z,101266.41
2022-09-11T16:23:41.111Z,101267.25
2022-09-11T16:26:24.014Z,101264.09
2022-09-11T16:29:07.243Z,101267.94
2022-09-11T16:31:48.020Z,101264.56
2022-09-11T16:34:30.167Z,101258.91
2022-09-11T16:37:12.543Z,101262.91
2022-09-11T16:39:52.976Z,101263.94
2022-09-11T16:42:33.358Z,101250.63
2022-09-11T16:45:13.123Z,101249.16
2022-09-11T16:47:52.939Z,101252.00
2022-09-11T16:50:34.714Z,101256.88
2022-09-11T16:53:13.853Z,101250.59
2022-09-11T16:55:56.198Z,101248.28
2022-09-11T16:58:36.678Z,101234.81
2022-09-11T17:01:18.399Z,101235.38
2022-09-11T17:03:58.668Z,101228.53
2022-09-11T17:06:38.028Z,101228.06
2022-09-11T17:09:17.788Z,101228.00
2022-09-11T17:11:58.126Z,101225.22
2022-09-11T17:14:36.181Z,101223.28
2022-09-11T17:17:17.616Z,101217.84
2022-09-11T17:19:59.262Z,101216.53
2022-09-11T17:22:38.468Z,101222.69
2022-09-11T17:25:20.245Z,101221.41
2022-09-11T17:28:00.004Z,101225.59
2022-09-11T17:30:40.234Z,101214.56
2022-09-11T17:33:41.083Z,101223.00
2022-09-11T17:36:22.010Z,101212.34
2022-09-11T17:39:01.281Z,101218.47
2022-09-11T17:41:41.064Z,101218.41
2022-09-11T17:44:20.783Z,101213.56
2022-09-11T17:47:02.236Z,101217.44
2022-09-11T17:49:40.944Z,101212.81
2022-09-11T17:52:20.703Z,101205.66
2022-09-11T17:55:00.111Z,101217.97
2022-09-11T17:57:54.103Z,101212.88
2022-09-11T18:00:34.400Z,101218.31
2022-09-11T18:03:15.005Z,101213.88
2022-09-11T18:05:56.116Z,101220.78
2022-09-11T18:08:35.377Z,101221.53
2022-09-11T18:11:17.303Z,101222.28
2022-09-11T18:13:55.347Z,101219.28
2022-09-11T18:16:33.632Z,101223.34
2022-09-11T18:19:12.236Z,101226.94
2022-09-11T18:21:53.076Z,101226.81
2022-09-11T18:24:31.871Z,101216.81
2022-09-11T18:27:12.393Z,101221.88
2022-09-11T18:29:51.087Z,101226.41
2022-09-11T18:32:30.102Z,101218.91
2022-09-11T18:35:10.145Z,101226.00
2022-09-11T18:37:52.887Z,101224.84
2022-09-11T18:40:33.432Z,101227.25
2022-09-11T18:43:13.127Z,101222.78
2022-09-11T18:45:51.445Z,101236.88
2022-09-11T18:48:33.200Z,101231.69
2022-09-11T18:51:15.207Z,101228.88
2022-09-11T18:53:55.707Z,101227.06
2022-09-11T18:56:36.253Z,101232.28
2022-09-11T18:59:15.576Z,101224.97
2022-09-11T19:01:55.053Z,101223.97
2022-09-11T19:04:34.758Z,101219.13
2022-09-11T19:07:13.196Z,101220.69
2022-09-11T19:09:53.117Z,101230.03
2022-09-11T19:12:32.351Z,101230.41
2022-09-11T19:15:14.140Z,101230.09
2022-09-11T19:17:56.507Z,101235.31
2022-09-11T19:20:35.319Z,101230.44
2022-09-11T19:23:14.799Z,101235.44
2022-09-11T19:26:03.241Z,101232.28
2022-09-11T19:28:43.943Z,101236.97
2022-09-11T19:31:24.751Z,101241.84
2022-09-11T19:34:09.415Z,101239.00
2022-09-11T19:36:51.932Z,101242.00
2022-09-11T19:39:54.100Z,101233.66
2022-09-11T19:42:32.530Z,101241.19
2022-09-11T19:45:11.848Z,101238.16
2022-09-11T19:47:51.691Z,101234.00
2022-09-11T19:50:36.905Z,101238.84
2022-09-11T19:53:19.433Z,101232.84
2022-09-11T19:56:00.847Z,101232.16
2022-09-11T19:58:39.744Z,101231.69
2022-09-11T20:01:21.311Z,101226.47
2022-09-11T20:04:01.684Z,101224.13
2022-09-11T20:09:32.397Z,101230.16
2022-09-11T20:12:12.925Z,101233.19
2022-09-11T20:14:52.440Z,101232.50
2022-09-11T20:17:31.125Z,101224.66
2022-09-11T20:20:10.639Z,101227.50
2022-09-11T20:22:48.647Z,101221.44
2022-09-11T20:25:38.887Z,101219.78
2022-09-11T20:28:20.296Z,101214.94
2022-09-11T20:31:02.970Z,101217.63
2022-09-11T20:33:45.450Z,101219.78
2022-09-11T20:36:27.066Z,101223.63
2022-09-11T20:39:06.781Z,101216.78
2022-09-11T20:41:46.691Z,101214.28
2022-09-11T20:44:25.283Z,101211.06
2022-09-11T20:47:04.720Z,101206.06
2022-09-11T20:49:43.226Z,101205.56
2022-09-11T20:52:21.457Z,101202.06
2022-09-11T20:55:00.819Z,101208.56
2022-09-11T20:57:40.595Z,101201.72
2022-09-11T21:00:20.657Z,101198.38
2022-09-11T21:03:02.225Z,101202.19
2022-09-11T21:05:40.548Z,101199.84
2022-09-11T21:08:18.682Z,101207.38
2022-09-11T21:11:02.572Z,101215.41
2022-09-11T21:13:42.094Z,101213.72
2022-09-11T21:16:22.706Z,101214.88
2022-09-11T21:19:02.819Z,101220.72
2022-09-11T21:21:43.229Z,101217.34
2022-09-11T21:24:25.571Z,101219.34
2022-09-11T21:27:06.947Z,101215.50
2022-09-11T21:29:46.687Z,101205.97
2022-09-11T21:32:26.613Z,101204.78
2022-09-11T21:35:07.235Z,101203.25
2022-09-11T21:37:49.308Z,101202.75
2022-09-11T21:40:28.492Z,101196.91
2022-09-11T21:43:07.357Z,101196.22
2022-09-11T21:45:46.835Z,101198.91
2022-09-11T21:48:27.338Z,101195.56
2022-09-11T21:51:09.660Z,101192.53
2022-09-11T21:53:50.820Z,101192.84
2022-09-11T21:56:33.401Z,101189.50
2022-09-11T21:59:13.766Z,101186.66
2022-09-11T22:01:53.706Z,101182.81
2022-09-11T22:04:36.361Z,101181.31
2022-09-11T22:07:28.183Z,101179.78
2022-09-11T22:10:08.318Z,101173.78
2022-09-11T22:12:47.811Z,101168.91
2022-09-11T22:15:27.559Z,101171.72
2022-09-11T22:18:07.468Z,101170.91
2022-09-11T22:20:47.471Z,101167.03
2022-09-11T22:23:27.206Z,101168.88
2022-09-11T22:26:09.636Z,101173.72
2022-09-11T22:28:49.862Z,101172.34
2022-09-11T22:31:31.679Z,101170.53
2022-09-11T22:34:14.277Z,101168.00
2022-09-11T22:36:54.026Z,101169.16
2022-09-11T22:39:33.844Z,101161.31
2022-09-11T22:42:13.635Z,101168.97
2022-09-11T22:44:53.436Z,101167.47
2022-09-11T22:47:47.063Z,101170.97
2022-09-11T22:50:28.503Z,101170.13
2022-09-11T22:53:09.840Z,101167.63
2022-09-11T22:55:50.009Z,101173.28
2022-09-11T22:58:30.486Z,101172.72
2022-09-11T23:01:12.010Z,101166.56
2022-09-11T23:03:54.363Z,101168.03
2022-09-11T23:06:54.463Z,101179.72
2022-09-11T23:09:34.589Z,101180.72
2022-09-11T23:12:27.503Z,101176.53
2022-09-11T23:15:06.589Z,101183.84
2022-09-11T23:17:46.825Z,101179.66
2022-09-11T23:20:26.851Z,101172.97
2022-09-11T23:23:08.309Z,101179.44
2022-09-11T23:25:47.781Z,101173.44
2022-09-11T23:28:27.514Z,101165.03
2022-09-11T23:31:13.157Z,101171.38
2022-09-11T23:33:55.373Z,101164.66
2022-09-11T23:36:37.325Z,101171.13
2022-09-11T23:39:18.157Z,101175.81
2022-09-11T23:41:57.757Z,101171.63
2022-09-11T23:44:37.580Z,101166.28
2022-09-11T23:47:17.478Z,101167.75
2022-09-11T23:49:57.621Z,101177.03
2022-09-11T23:52:39.530Z,101165.41
2022-09-11T23:55:20.048Z,101162.84
2022-09-11T23:58:02.597Z,101161.19
